createdAt,value
2018-05-09T00:02:49.524Z,5.87
2018-05-09T00:07:45.393Z,6.97
2018-05-09T00:12:41.302Z,6.70
2018-05-09T00:17:37.154Z,6.80
2018-05-09T00:22:33.098Z,6.70
2018-05-09T00:27:28.986Z,7.00
2018-05-09T00:32:24.848Z,6.87
2018-05-09T00:37:20.709Z,6.50
2018-05-09T00:42:16.551Z,7.03
2018-05-09T00:47:12.417Z,6.90
2018-05-09T00:52:08.251Z,6.90
2018-05-09T00:57:04.146Z,7.20
2018-05-09T01:01:59.994Z,7.40
2018-05-09T01:06:55.844Z,6.63
2018-05-09T01:11:51.690Z,7.00
2018-05-09T01:16:47.606Z,7.20
2018-05-09T01:21:43.490Z,6.80
2018-05-09T01:26:39.358Z,7.73
2018-05-09T01:31:35.208Z,7.30
2018-05-09T01:36:31.053Z,7.63
2018-05-09T01:41:26.941Z,8.00
2018-05-09T01:46:22.797Z,7.60
2018-05-09T01:51:18.668Z,7.13
2018-05-09T01:56:14.556Z,8.10
2018-05-09T02:01:17.464Z,7.17
2018-05-09T02:06:13.415Z,8.50
2018-05-09T02:11:09.379Z,8.30
2018-05-09T02:16:05.243Z,7.83
2018-05-09T02:21:01.137Z,7.93
2018-05-09T02:25:57.045Z,8.47
2018-05-09T02:30:52.920Z,7.80
2018-05-09T02:35:48.810Z,8.27
2018-05-09T02:40:44.654Z,8.37
2018-05-09T02:45:40.557Z,8.60
2018-05-09T02:50:36.426Z,8.67
2018-05-09T02:55:32.294Z,7.60
2018-05-09T03:00:28.132Z,8.40
2018-05-09T03:05:24.021Z,8.13
2018-05-09T03:10:19.890Z,9.07
2018-05-09T03:15:15.732Z,9.90
2018-05-09T03:20:12.478Z,9.90
2018-05-09T03:25:08.331Z,9.83
2018-05-09T03:30:04.227Z,9.50
2018-05-09T03:35:00.060Z,9.67
2018-05-09T03:39:55.965Z,10.27
2018-05-09T03:44:51.798Z,9.47
2018-05-09T03:49:47.661Z,9.40
2018-05-09T03:54:43.551Z,9.83
2018-05-09T03:59:39.399Z,9.40
2018-05-09T04:04:41.369Z,9.87
2018-05-09T04:09:37.291Z,10.87
2018-05-09T04:14:33.161Z,9.83
2018-05-09T04:19:29.012Z,11.23
2018-05-09T04:24:24.910Z,11.30
2018-05-09T04:29:20.786Z,10.50
2018-05-09T04:34:16.655Z,10.47
2018-05-09T04:39:12.553Z,9.83
2018-05-09T04:44:08.399Z,9.63
2018-05-09T04:49:04.236Z,10.37
2018-05-09T04:54:00.107Z,10.73
2018-05-09T04:58:56.011Z,12.30
2018-05-09T05:03:54.673Z,12.70
2018-05-09T05:08:50.548Z,12.50
2018-05-09T05:13:46.379Z,12.57
2018-05-09T05:18:42.228Z,12.80
2018-05-09T05:23:38.106Z,10.87
2018-05-09T05:28:33.975Z,11.03
2018-05-09T05:33:36.703Z,12.43
2018-05-09T05:38:32.590Z,11.80
2018-05-09T05:43:28.429Z,11.90
2018-05-09T05:48:24.789Z,12.07
2018-05-09T05:53:20.735Z,10.97
2018-05-09T05:58:16.605Z,10.43
2018-05-09T06:03:12.481Z,10.13
2018-05-09T06:08:08.335Z,9.83
2018-05-09T06:13:04.248Z,9.13
2018-05-09T06:18:00.091Z,9.53
2018-05-09T06:22:56.002Z,9.77
2018-05-09T06:27:51.846Z,8.80
2018-05-09T06:32:47.734Z,8.53
2018-05-09T06:37:43.617Z,9.13
2018-05-09T06:42:39.451Z,8.97
2018-05-09T06:47:35.325Z,9.17
2018-05-09T06:52:31.259Z,9.10
2018-05-09T06:57:27.129Z,8.43
2018-05-09T07:02:23.004Z,8.70
2018-05-09T07:07:18.888Z,9.00
2018-05-09T07:12:14.785Z,9.17
2018-05-09T07:17:10.670Z,8.40
2018-05-09T07:22:06.620Z,8.60
2018-05-09T07:27:02.426Z,8.77
2018-05-09T07:31:58.296Z,7.93
2018-05-09T07:36:54.196Z,7.97
2018-05-09T07:41:50.075Z,9.00
2018-05-09T07:46:45.939Z,8.63
2018-05-09T07:51:41.836Z,8.73
2018-05-09T07:56:37.703Z,7.28
2018-05-09T08:01:33.545Z,7.25
2018-05-09T08:06:29.405Z,6.45
2018-05-09T08:11:25.359Z,5.45
2018-05-09T08:16:21.217Z,6.28
2018-05-09T08:21:17.069Z,6.20
2018-05-09T08:26:14.013Z,5.78
2018-05-09T08:31:09.982Z,5.13
2018-05-09T08:36:05.898Z,4.93
2018-05-09T08:41:01.748Z,4.72
2018-05-09T08:45:57.640Z,3.95
2018-05-09T08:50:53.522Z,3.83
2018-05-09T08:55:49.358Z,3.78
2018-05-09T09:00:45.200Z,3.92
2018-05-09T09:05:41.043Z,3.58
2018-05-09T09:10:36.908Z,4.00
2018-05-09T09:15:32.881Z,3.78
2018-05-09T09:20:28.723Z,3.58
2018-05-09T09:25:24.607Z,3.12
2018-05-09T09:30:20.517Z,2.90
2018-05-09T09:35:16.398Z,3.17
2018-05-09T09:40:12.462Z,3.20
2018-05-09T09:45:08.373Z,2.80
2018-05-09T09:50:04.242Z,3.65
2018-05-09T09:55:00.123Z,3.20
2018-05-09T09:59:56.020Z,3.03
2018-05-09T10:04:51.891Z,3.20
2018-05-09T10:09:47.745Z,2.87
2018-05-09T10:14:43.603Z,3.37
2018-05-09T10:19:39.489Z,2.95
2018-05-09T10:24:35.383Z,2.60
2018-05-09T10:29:31.247Z,2.45
2018-05-09T10:34:27.163Z,2.75
2018-05-09T10:39:23.025Z,2.85
2018-05-09T10:44:18.929Z,2.83
2018-05-09T10:49:14.784Z,2.50
2018-05-09T10:54:10.696Z,2.97
2018-05-09T10:59:06.564Z,2.70
2018-05-09T11:04:02.444Z,2.70
2018-05-09T11:08:58.310Z,3.00
2018-05-09T11:13:54.143Z,2.72
2018-05-09T11:18:50.046Z,2.65
2018-05-09T11:23:45.911Z,3.20
2018-05-09T11:28:41.794Z,3.50
2018-05-09T11:33:37.649Z,2.90
2018-05-09T11:38:33.616Z,2.75
2018-05-09T11:43:29.593Z,2.60
2018-05-09T11:48:25.613Z,3.30
2018-05-09T11:53:21.538Z,3.17
2018-05-09T11:58:17.462Z,4.07
2018-05-09T12:03:13.517Z,3.70
2018-05-09T12:08:09.494Z,3.58
2018-05-09T12:13:05.463Z,3.20
2018-05-09T12:18:01.565Z,3.15
2018-05-09T12:22:57.497Z,3.65
2018-05-09T12:27:53.381Z,3.08
2018-05-09T12:32:49.272Z,3.17
2018-05-09T12:37:45.460Z,2.90
2018-05-09T12:42:41.570Z,5.62
2018-05-09T12:47:37.513Z,4.18
2018-05-09T12:52:33.384Z,3.40
2018-05-09T12:57:29.364Z,3.87
2018-05-09T13:02:25.254Z,3.62
2018-05-09T13:07:21.211Z,4.12
2018-05-09T13:12:17.109Z,5.37
2018-05-09T13:17:12.975Z,3.28
2018-05-09T13:22:08.902Z,3.50
2018-05-09T13:27:04.847Z,4.10
2018-05-09T13:32:00.785Z,19.30
2018-05-09T13:36:56.809Z,4.03
2018-05-09T13:41:52.819Z,3.78
2018-05-09T13:46:48.683Z,3.40
2018-05-09T13:51:44.539Z,3.45
2018-05-09T13:56:40.425Z,3.55
2018-05-09T14:01:36.313Z,3.72
2018-05-09T14:06:32.203Z,3.65
2018-05-09T14:11:28.083Z,3.75
2018-05-09T14:16:23.948Z,3.75
2018-05-09T14:21:19.810Z,4.10
2018-05-09T14:26:15.681Z,3.97
2018-05-09T14:31:11.514Z,3.95
2018-05-09T14:36:07.393Z,3.80
2018-05-09T14:41:03.231Z,3.90
2018-05-09T14:45:59.115Z,3.62
2018-05-09T14:50:54.966Z,4.03
2018-05-09T14:55:50.828Z,3.65
2018-05-09T15:00:46.703Z,3.92
2018-05-09T15:05:42.593Z,4.40
2018-05-09T15:10:38.494Z,3.92
2018-05-09T15:15:34.388Z,3.80
2018-05-09T15:20:30.264Z,4.22
2018-05-09T15:25:26.178Z,4.68
2018-05-09T15:30:22.076Z,4.40
2018-05-09T15:35:17.965Z,3.60
2018-05-09T15:40:13.827Z,3.15
2018-05-09T15:45:09.725Z,2.87
2018-05-09T15:50:05.607Z,3.00
2018-05-09T15:55:01.526Z,2.80
2018-05-09T15:59:57.394Z,3.43
2018-05-09T16:04:53.261Z,3.25
2018-05-09T16:09:49.145Z,3.90
2018-05-09T16:14:45.037Z,4.05
2018-05-09T16:19:40.933Z,3.65
2018-05-09T16:24:36.827Z,4.25
2018-05-09T16:29:32.722Z,3.62
2018-05-09T16:34:28.584Z,3.60
2018-05-09T16:39:24.447Z,3.53
2018-05-09T16:44:20.336Z,3.10
2018-05-09T16:49:16.242Z,4.07
2018-05-09T16:54:12.176Z,6.55
2018-05-09T16:59:08.080Z,3.85
2018-05-09T17:04:03.953Z,3.12
2018-05-09T17:08:59.820Z,3.65
2018-05-09T17:13:55.672Z,11.02
2018-05-09T17:18:51.565Z,8.73
2018-05-09T17:23:47.471Z,4.32
2018-05-09T17:28:43.321Z,4.60
2018-05-09T17:33:39.210Z,4.45
2018-05-09T17:38:35.077Z,4.28
2018-05-09T17:43:30.996Z,4.28
2018-05-09T17:48:26.949Z,3.10
2018-05-09T17:53:22.788Z,3.80
2018-05-09T17:58:18.665Z,3.22
2018-05-09T18:03:14.589Z,3.85
2018-05-09T18:08:10.428Z,3.33
2018-05-09T18:13:06.333Z,3.20
2018-05-09T18:18:02.224Z,3.78
2018-05-09T18:22:58.111Z,3.95
2018-05-09T18:27:53.967Z,3.35
2018-05-09T18:32:49.804Z,3.62
2018-05-09T18:37:45.670Z,3.85
2018-05-09T18:42:41.515Z,4.22
2018-05-09T18:47:37.422Z,4.50
2018-05-09T18:52:33.288Z,3.87
2018-05-09T18:57:29.161Z,3.67
2018-05-09T19:02:25.088Z,3.37
2018-05-09T19:07:20.933Z,4.30
2018-05-09T19:12:16.834Z,4.43
2018-05-09T19:17:12.679Z,4.50
2018-05-09T19:22:08.567Z,4.43
2018-05-09T19:27:04.470Z,4.47
2018-05-09T19:32:00.349Z,4.73
2018-05-09T19:36:56.197Z,4.67
2018-05-09T19:41:52.212Z,5.20
2018-05-09T19:46:48.012Z,5.20
2018-05-09T19:51:43.861Z,4.90
2018-05-09T19:56:39.749Z,5.30
2018-05-09T20:01:35.850Z,6.07
2018-05-09T20:06:31.772Z,5.70
2018-05-09T20:11:27.669Z,6.57
2018-05-09T20:16:23.563Z,5.67
2018-05-09T20:21:19.680Z,5.17
2018-05-09T20:26:15.613Z,5.63
2018-05-09T20:31:23.964Z,6.13
2018-05-09T20:36:19.844Z,6.17
2018-05-09T20:41:15.820Z,6.30
2018-05-09T20:46:11.683Z,6.87
2018-05-09T20:51:14.459Z,6.47
2018-05-09T20:56:10.369Z,5.97
2018-05-09T21:01:12.389Z,6.50
2018-05-09T21:06:08.293Z,5.70
2018-05-09T21:11:04.163Z,6.00
2018-05-09T21:16:00.044Z,6.33
2018-05-09T21:20:56.112Z,6.60
2018-05-09T21:25:52.013Z,6.63
2018-05-09T21:30:47.875Z,6.43
2018-05-09T21:35:43.737Z,7.00
2018-05-09T21:40:39.571Z,6.73
2018-05-09T21:45:35.425Z,6.33
2018-05-09T21:50:31.287Z,6.83
2018-05-09T21:55:27.223Z,7.10
2018-05-09T22:00:23.090Z,7.10
2018-05-09T22:05:18.958Z,6.70
2018-05-09T22:10:14.825Z,7.10
2018-05-09T22:15:10.726Z,7.00
2018-05-09T22:20:06.654Z,6.90
2018-05-09T22:25:02.605Z,8.03
2018-05-09T22:29:58.473Z,6.50
2018-05-09T22:34:54.320Z,6.90
2018-05-09T22:39:50.167Z,7.30
2018-05-09T22:44:46.035Z,7.30
2018-05-09T22:49:42.000Z,7.07
2018-05-09T22:54:37.823Z,7.67
2018-05-09T22:59:33.660Z,8.23
2018-05-09T23:04:29.521Z,7.50
2018-05-09T23:09:25.364Z,7.60
2018-05-09T23:14:21.240Z,8.07
2018-05-09T23:19:17.093Z,7.87
2018-05-09T23:24:13.009Z,8.33
2018-05-09T23:29:08.848Z,8.40
2018-05-09T23:34:04.713Z,8.93
2018-05-09T23:39:00.602Z,8.10
2018-05-09T23:43:56.441Z,9.00
2018-05-09T23:48:52.317Z,9.20
2018-05-09T23:53:48.183Z,9.07
2018-05-09T23:58:44.067Z,9.70
